Terminal Aerodrome Forecast
Issued by NWS Cleveland, OH

Home | Current Version | Previous Version | Text Only | Print | Product List | Glossary On
Versions: 1 2 3 4 5 6 7 8 9 10 11 12 13 14 15 16 17 18 19 20 21 22 23
185
FTUS41 KCLE 262324
TAFERI
TAF
KERI 262324Z 2700/2724 26009KT P6SM BKN028 OVC035
      TEMPO 2700/2704 SCT028 OVC035
     FM270400 20005KT P6SM BKN035
     FM270800 15004KT 5SM -SHRA BR BKN025 OVC050
     FM271000 00000KT 3SM BR OVC012
      TEMPO 2710/2714 1SM BR OVC008
     FM271500 36004KT P6SM BKN025
     FM271600 36005KT P6SM BKN050
     FM271800 01007KT P6SM SCT050 BKN120=

USA.gov is the U.S. government's official web portal to all federal, state and local government web resources and services.